createdAt,value
2024-03-08T00:00:47.918Z,8.48
2024-03-08T00:03:17.260Z,7.43
2024-03-08T00:05:45.553Z,5.78
2024-03-08T00:08:13.333Z,8.75
2024-03-08T00:10:40.680Z,5.30
2024-03-08T00:13:08.585Z,6.03
2024-03-08T00:15:38.904Z,6.63
2024-03-08T00:18:07.528Z,5.90
2024-03-08T00:20:35.520Z,7.97
2024-03-08T00:23:02.498Z,7.40
2024-03-08T00:25:29.685Z,7.70
2024-03-08T00:28:01.191Z,9.02
2024-03-08T00:30:29.842Z,8.77
2024-03-08T00:32:56.969Z,8.77
2024-03-08T00:35:25.629Z,5.60
2024-03-08T00:37:52.549Z,5.60
2024-03-08T00:40:21.022Z,6.63
2024-03-08T00:42:51.894Z,7.85
2024-03-08T00:45:18.731Z,6.40
2024-03-08T00:47:49.545Z,7.07
2024-03-08T00:50:19.605Z,6.18
2024-03-08T00:52:47.778Z,10.88
2024-03-08T00:55:17.108Z,9.18
2024-03-08T00:57:50.109Z,7.22
2024-03-08T01:00:22.292Z,8.05
2024-03-08T01:02:49.649Z,5.68
2024-03-08T01:05:17.360Z,7.10
2024-03-08T01:07:48.318Z,7.47
2024-03-08T01:10:15.108Z,6.00
2024-03-08T01:12:42.792Z,8.75
2024-03-08T01:15:14.237Z,6.72
2024-03-08T01:17:42.603Z,5.80
2024-03-08T01:20:12.292Z,6.20
2024-03-08T01:22:39.932Z,8.15
2024-03-08T01:25:10.052Z,8.25
2024-03-08T01:27:39.179Z,6.05
2024-03-08T01:30:08.149Z,7.78
2024-03-08T01:32:35.271Z,6.43
2024-03-08T01:35:06.360Z,5.35
2024-03-08T01:37:34.242Z,7.65
2024-03-08T01:40:05.513Z,9.15
2024-03-08T01:42:33.036Z,6.85
2024-03-08T01:45:01.690Z,6.45
2024-03-08T01:47:34.178Z,6.63
2024-03-08T01:50:07.989Z,7.50
2024-03-08T01:52:36.516Z,16.45
2024-03-08T01:55:08.905Z,6.90
2024-03-08T01:57:37.313Z,10.57
2024-03-08T02:02:38.628Z,8.07
2024-03-08T02:05:06.664Z,13.18
2024-03-08T02:07:34.099Z,6.90
2024-03-08T02:10:05.641Z,6.40
2024-03-08T02:12:32.780Z,5.97
2024-03-08T02:15:08.077Z,6.03
2024-03-08T02:17:37.171Z,9.07
2024-03-08T02:20:06.055Z,13.00
2024-03-08T02:22:35.528Z,7.88
2024-03-08T02:25:06.522Z,8.52
2024-03-08T02:30:03.539Z,5.07
2024-03-08T02:32:31.456Z,13.25
2024-03-08T02:35:01.651Z,7.65
2024-03-08T02:37:30.223Z,8.70
2024-03-08T02:39:58.325Z,6.20
2024-03-08T02:42:25.780Z,8.50
2024-03-08T02:44:58.222Z,6.85
2024-03-08T02:47:28.959Z,8.43
2024-03-08T02:49:58.072Z,5.07
2024-03-08T02:52:28.328Z,9.18
2024-03-08T02:54:57.431Z,8.75
2024-03-08T02:57:28.456Z,6.28
2024-03-08T03:00:05.663Z,7.22
2024-03-08T03:02:36.347Z,7.88
2024-03-08T03:05:06.650Z,7.25
2024-03-08T03:07:45.590Z,7.88
2024-03-08T03:10:13.508Z,6.88
2024-03-08T03:12:44.245Z,10.10
2024-03-08T03:15:20.196Z,9.18
2024-03-08T03:17:48.877Z,5.68
2024-03-08T03:20:23.903Z,15.00
2024-03-08T03:22:54.695Z,7.82
2024-03-08T03:25:30.089Z,8.38
2024-03-08T03:27:58.083Z,5.78
2024-03-08T03:30:28.351Z,6.35
2024-03-08T03:32:58.196Z,6.55
2024-03-08T03:35:28.047Z,6.82
2024-03-08T03:38:08.784Z,5.90
2024-03-08T03:40:39.524Z,8.43
2024-03-08T03:43:09.547Z,7.53
2024-03-08T03:45:39.090Z,6.78
2024-03-08T03:48:10.728Z,8.15
2024-03-08T03:50:38.595Z,8.60
2024-03-08T03:53:08.734Z,8.52
2024-03-08T03:55:38.223Z,7.43
2024-03-08T03:58:05.358Z,8.45
2024-03-08T04:00:32.016Z,7.90
2024-03-08T04:03:02.357Z,7.85
2024-03-08T04:05:30.922Z,6.53
2024-03-08T04:07:59.078Z,6.57
2024-03-08T04:10:27.615Z,11.10
2024-03-08T04:13:02.364Z,8.82
2024-03-08T04:15:29.427Z,7.80
2024-03-08T04:17:59.106Z,8.35
2024-03-08T04:20:27.257Z,10.43
2024-03-08T04:22:55.714Z,10.00
2024-03-08T04:25:24.704Z,6.93
2024-03-08T04:27:56.238Z,8.07
2024-03-08T04:30:23.238Z,7.35
2024-03-08T04:32:54.384Z,8.23
2024-03-08T04:35:21.534Z,11.45
2024-03-08T04:37:48.659Z,10.40
2024-03-08T04:40:17.076Z,7.13
2024-03-08T04:42:47.198Z,8.55
2024-03-08T04:45:16.250Z,9.38
2024-03-08T04:47:46.062Z,8.27
2024-03-08T04:50:13.170Z,9.15
2024-03-08T04:52:39.917Z,7.60
2024-03-08T04:55:09.066Z,15.30
2024-03-08T04:57:41.616Z,10.90
2024-03-08T05:00:12.378Z,9.43
2024-03-08T05:02:42.864Z,8.20
2024-03-08T05:05:16.327Z,8.63
2024-03-08T05:07:47.228Z,7.93
2024-03-08T05:10:18.491Z,11.43
2024-03-08T05:12:46.858Z,8.35
2024-03-08T05:15:15.765Z,9.40
2024-03-08T05:17:45.900Z,8.15
2024-03-08T05:20:14.671Z,9.60
2024-03-08T05:22:41.749Z,9.88
2024-03-08T05:25:10.200Z,7.70
2024-03-08T05:27:39.599Z,12.45
2024-03-08T05:30:06.852Z,10.45
2024-03-08T05:32:34.798Z,10.38
2024-03-08T05:37:32.597Z,10.88
2024-03-08T05:39:59.339Z,8.32
2024-03-08T05:42:26.077Z,8.55
2024-03-08T05:44:55.253Z,11.07
2024-03-08T05:47:22.062Z,8.68
2024-03-08T05:49:50.329Z,10.50
2024-03-08T05:52:17.766Z,9.75
2024-03-08T05:54:47.753Z,13.35
2024-03-08T05:57:16.451Z,11.50
2024-03-08T05:59:45.520Z,9.65
2024-03-08T06:02:12.431Z,11.05
2024-03-08T06:04:44.565Z,9.68
2024-03-08T06:07:13.805Z,8.80
2024-03-08T06:09:41.848Z,8.38
2024-03-08T06:12:12.364Z,10.85
2024-03-08T06:14:41.559Z,11.07
2024-03-08T06:17:08.706Z,14.07
2024-03-08T06:19:37.925Z,10.57
2024-03-08T06:22:07.805Z,13.18
2024-03-08T06:24:37.867Z,10.75
2024-03-08T06:27:05.542Z,10.35
2024-03-08T06:29:32.485Z,13.20
2024-03-08T06:32:01.678Z,11.68
2024-03-08T06:34:29.905Z,12.52
2024-03-08T06:37:02.132Z,15.80
2024-03-08T06:39:33.024Z,11.45
2024-03-08T06:42:02.558Z,9.35
2024-03-08T06:44:29.846Z,9.35
2024-03-08T06:47:00.642Z,11.10
2024-03-08T06:49:28.128Z,11.52
2024-03-08T06:51:57.513Z,12.65
2024-03-08T06:54:26.065Z,11.60
2024-03-08T06:56:57.342Z,13.10
2024-03-08T06:59:24.240Z,11.82
2024-03-08T07:01:51.559Z,13.63
2024-03-08T07:04:21.315Z,12.13
2024-03-08T07:06:51.279Z,10.27
2024-03-08T07:09:19.337Z,15.98
2024-03-08T07:11:47.877Z,14.52
2024-03-08T07:14:16.757Z,15.98
2024-03-08T07:16:48.340Z,12.73
2024-03-08T07:19:16.747Z,13.57
2024-03-08T07:21:50.455Z,16.10
2024-03-08T07:24:41.129Z,12.27
2024-03-08T07:27:09.111Z,16.00
2024-03-08T07:29:38.854Z,14.68
2024-03-08T07:32:24.640Z,12.65
2024-03-08T07:34:52.233Z,18.65
2024-03-08T07:37:20.568Z,14.45
2024-03-08T07:39:47.705Z,18.48
2024-03-08T07:42:17.005Z,15.20
2024-03-08T07:44:44.664Z,14.00
2024-03-08T07:47:11.719Z,13.82
2024-03-08T07:49:38.720Z,14.75
2024-03-08T07:52:08.585Z,15.88
2024-03-08T07:54:38.421Z,14.02
2024-03-08T07:57:05.714Z,19.67
2024-03-08T07:59:35.135Z,17.77
2024-03-08T08:02:02.052Z,17.80
2024-03-08T08:04:32.421Z,13.20
2024-03-08T08:07:01.692Z,16.75
2024-03-08T08:09:37.090Z,13.25
2024-03-08T08:12:04.819Z,14.02
2024-03-08T08:14:32.106Z,13.43
2024-03-08T08:17:02.781Z,13.77
2024-03-08T08:19:30.003Z,16.60
2024-03-08T08:21:58.956Z,10.98
2024-03-08T08:24:35.060Z,15.13
2024-03-08T08:27:01.937Z,10.98
2024-03-08T08:29:28.699Z,12.15
2024-03-08T08:31:57.750Z,14.80
2024-03-08T08:34:25.605Z,13.65
2024-03-08T08:36:54.432Z,13.60
2024-03-08T08:39:24.520Z,12.30
2024-03-08T08:41:53.707Z,14.02
2024-03-08T08:44:22.290Z,15.77
2024-03-08T08:46:51.560Z,14.20
2024-03-08T08:49:21.895Z,14.75
2024-03-08T08:51:52.909Z,16.55
2024-03-08T08:54:23.308Z,15.65
2024-03-08T08:56:50.826Z,20.83
2024-03-08T08:59:41.612Z,17.30
2024-03-08T09:02:19.050Z,16.88
2024-03-08T09:04:46.838Z,17.83
2024-03-08T09:07:15.051Z,18.70
2024-03-08T09:09:45.986Z,13.13
2024-03-08T09:12:14.559Z,16.50
2024-03-08T09:14:42.561Z,17.40
2024-03-08T09:17:10.679Z,19.65
2024-03-08T09:19:39.006Z,18.25
2024-03-08T09:22:06.797Z,18.98
2024-03-08T09:27:06.503Z,17.48
2024-03-08T09:29:39.156Z,19.77
2024-03-08T09:32:08.582Z,16.83
2024-03-08T09:34:38.845Z,19.10
2024-03-08T09:37:07.202Z,16.42
2024-03-08T09:39:35.162Z,21.08
2024-03-08T09:44:37.869Z,14.60
2024-03-08T09:49:39.133Z,15.38
2024-03-08T09:52:06.388Z,18.98
2024-03-08T09:54:33.294Z,21.48
2024-03-08T09:57:04.898Z,20.65
2024-03-08T09:59:45.642Z,21.58
2024-03-08T10:02:27.991Z,21.00
2024-03-08T10:04:58.873Z,18.77
2024-03-08T10:07:33.546Z,18.85
2024-03-08T10:10:00.810Z,17.90
2024-03-08T10:12:29.629Z,24.40
2024-03-08T10:15:01.873Z,19.23
2024-03-08T10:17:36.347Z,18.50
2024-03-08T10:20:17.202Z,19.23
2024-03-08T10:22:54.327Z,15.65
2024-03-08T10:25:36.955Z,21.88
2024-03-08T10:28:07.204Z,21.58
2024-03-08T10:30:35.031Z,19.95
2024-03-08T10:33:03.674Z,18.58
2024-03-08T10:35:30.561Z,26.05
2024-03-08T10:38:04.012Z,22.00
2024-03-08T10:40:34.188Z,22.48
2024-03-08T10:43:05.388Z,23.50
2024-03-08T10:45:44.054Z,23.23
2024-03-08T10:48:39.572Z,19.52
2024-03-08T10:51:10.140Z,19.92
2024-03-08T10:53:45.535Z,24.52
2024-03-08T10:56:13.089Z,24.42
2024-03-08T10:58:42.179Z,24.08
2024-03-08T11:01:13.076Z,20.08
2024-03-08T11:03:44.253Z,22.05
2024-03-08T11:06:39.440Z,16.80
2024-03-08T11:09:32.052Z,24.30
2024-03-08T11:12:30.391Z,18.27
2024-03-08T11:15:04.472Z,22.75
2024-03-08T11:17:46.156Z,18.88
2024-03-08T11:20:22.881Z,28.23
2024-03-08T11:23:11.743Z,23.98
2024-03-08T11:25:45.391Z,25.70
2024-03-08T11:28:28.862Z,16.98
2024-03-08T11:31:01.674Z,20.85
2024-03-08T11:33:33.844Z,25.58
2024-03-08T11:36:13.140Z,26.75
2024-03-08T11:38:50.445Z,23.10
2024-03-08T11:41:22.993Z,23.17
2024-03-08T11:43:51.445Z,21.17
2024-03-08T11:46:19.319Z,24.58
2024-03-08T11:51:19.523Z,18.92
2024-03-08T11:53:48.520Z,16.60
2024-03-08T11:56:18.545Z,22.10
2024-03-08T11:59:02.769Z,15.48
2024-03-08T12:01:33.358Z,25.45
2024-03-08T12:21:20.250Z,21.00
2024-03-08T12:23:57.110Z,22.13
2024-03-08T12:26:27.331Z,22.05
2024-03-08T12:29:15.214Z,24.92
2024-03-08T12:31:43.815Z,22.85
2024-03-08T12:34:12.663Z,23.95
2024-03-08T12:36:45.138Z,19.70
2024-03-08T12:39:18.987Z,19.58
2024-03-08T12:41:49.042Z,21.65
2024-03-08T12:44:23.094Z,25.17
2024-03-08T12:46:53.725Z,20.23
2024-03-08T12:49:25.754Z,25.25
2024-03-08T12:51:54.484Z,21.98
2024-03-08T12:54:28.246Z,26.15
2024-03-08T12:57:01.751Z,22.50
2024-03-08T12:59:29.903Z,21.33
2024-03-08T13:02:00.009Z,20.08
2024-03-08T13:04:28.622Z,21.17
2024-03-08T13:06:57.301Z,19.65
2024-03-08T13:09:28.946Z,23.35
2024-03-08T13:12:01.055Z,21.30
2024-03-08T13:14:28.730Z,22.65
2024-03-08T13:17:02.317Z,19.35
2024-03-08T13:19:30.136Z,13.65
2024-03-08T13:21:59.732Z,23.92
2024-03-08T13:24:28.142Z,22.23
2024-03-08T13:26:58.607Z,23.77
2024-03-08T13:29:25.967Z,23.58
2024-03-08T13:31:57.324Z,19.45
2024-03-08T13:34:38.417Z,21.02
2024-03-08T13:37:08.241Z,25.20
2024-03-08T13:39:41.998Z,25.25
2024-03-08T13:42:14.166Z,22.50
2024-03-08T13:44:46.147Z,18.95
2024-03-08T13:47:16.136Z,20.30
2024-03-08T13:49:47.234Z,21.73
2024-03-08T13:52:16.122Z,19.70
2024-03-08T13:54:45.068Z,22.98
2024-03-08T13:57:14.072Z,14.27
2024-03-08T13:59:42.204Z,21.92
2024-03-08T14:02:18.643Z,23.80
2024-03-08T14:04:49.983Z,20.15
2024-03-08T14:07:17.519Z,23.17
2024-03-08T14:09:45.018Z,20.52
2024-03-08T14:12:13.066Z,20.80
2024-03-08T14:17:08.521Z,20.15
2024-03-08T14:19:36.560Z,16.95
2024-03-08T14:22:05.596Z,17.67
2024-03-08T14:24:32.637Z,20.63
2024-03-08T14:27:00.606Z,22.92
2024-03-08T14:32:01.090Z,17.92
2024-03-08T14:34:31.372Z,25.63
2024-03-08T14:37:03.037Z,22.60
2024-03-08T14:39:31.022Z,18.40
2024-03-08T14:42:02.443Z,20.23
2024-03-08T14:44:32.096Z,21.85
2024-03-08T14:47:03.330Z,22.88
2024-03-08T14:49:48.033Z,25.13
2024-03-08T14:52:31.020Z,25.42
2024-03-08T14:55:04.364Z,19.15
2024-03-08T14:57:33.952Z,27.05
2024-03-08T15:00:18.195Z,24.70
2024-03-08T15:02:45.414Z,17.65
2024-03-08T15:05:14.963Z,9.18
2024-03-08T15:07:43.803Z,6.47
2024-03-08T15:10:17.873Z,5.32
2024-03-08T15:13:02.215Z,5.63
2024-03-08T15:15:31.685Z,3.10
2024-03-08T15:18:06.319Z,2.45
2024-03-08T15:20:38.595Z,2.22
2024-03-08T15:23:05.658Z,2.17
2024-03-08T15:25:37.962Z,2.53
2024-03-08T15:29:05.266Z,4.43
2024-03-08T15:31:33.841Z,2.55
2024-03-08T15:37:19.374Z,4.43
2024-03-08T15:39:48.268Z,4.32
2024-03-08T15:45:02.931Z,3.22
2024-03-08T15:47:58.565Z,3.35
2024-03-08T15:50:26.570Z,2.63
2024-03-08T15:53:15.528Z,3.42
2024-03-08T15:55:42.531Z,5.70
2024-03-08T15:58:13.878Z,2.95
2024-03-08T16:03:35.223Z,5.10
2024-03-08T16:06:02.054Z,4.32
2024-03-08T16:08:29.428Z,4.93
2024-03-08T16:10:58.528Z,3.35
2024-03-08T16:16:24.337Z,5.30
2024-03-08T16:22:15.235Z,4.03
2024-03-08T16:28:17.160Z,4.90
2024-03-08T16:31:04.611Z,5.47
2024-03-08T16:36:50.681Z,6.45
2024-03-08T16:39:20.280Z,3.42
2024-03-08T16:41:48.367Z,4.32
2024-03-08T16:44:25.502Z,4.47
2024-03-08T16:46:53.276Z,3.65
2024-03-08T16:49:20.739Z,2.45
2024-03-08T16:51:47.518Z,2.80
2024-03-08T16:54:18.989Z,4.30
2024-03-08T16:56:54.379Z,3.33
2024-03-08T17:08:16.607Z,4.47
2024-03-08T17:11:12.366Z,6.07
2024-03-08T17:13:42.142Z,3.38
2024-03-08T17:16:18.831Z,2.28
2024-03-08T17:22:46.009Z,3.47
2024-03-08T17:35:59.928Z,3.13
2024-03-08T17:38:27.579Z,2.28
2024-03-08T17:40:55.824Z,2.72
2024-03-08T17:43:25.179Z,2.60
2024-03-08T17:45:54.229Z,8.05
2024-03-08T17:48:26.727Z,2.33
2024-03-08T17:50:55.460Z,2.08
2024-03-08T17:53:22.394Z,1.40
2024-03-08T17:55:53.041Z,5.80
2024-03-08T17:58:21.718Z,2.55
2024-03-08T18:00:59.053Z,3.50
2024-03-08T18:03:29.598Z,3.47
2024-03-08T18:05:57.665Z,2.97
2024-03-08T18:08:26.562Z,1.63
2024-03-08T18:10:54.874Z,2.08
2024-03-08T18:13:22.508Z,2.28
2024-03-08T18:15:50.723Z,3.97
2024-03-08T18:20:48.156Z,2.80
2024-03-08T18:23:16.722Z,2.88
2024-03-08T18:25:46.621Z,2.55
2024-03-08T18:28:14.458Z,3.90
2024-03-08T18:30:45.021Z,3.10
2024-03-08T18:33:15.548Z,2.13
2024-03-08T18:35:43.244Z,2.25
2024-03-08T18:38:11.045Z,2.38
2024-03-08T18:40:46.263Z,2.80
2024-03-08T18:43:14.307Z,1.05
2024-03-08T18:45:43.617Z,2.90
2024-03-08T18:48:13.241Z,1.95
2024-03-08T18:50:40.768Z,2.45
2024-03-08T18:53:17.875Z,2.25
2024-03-08T18:55:47.384Z,2.13
2024-03-08T18:58:19.846Z,2.63
2024-03-08T19:00:51.807Z,2.53
2024-03-08T19:03:18.882Z,4.72
2024-03-08T19:05:47.630Z,1.63
2024-03-08T19:08:18.457Z,3.53
2024-03-08T19:10:45.358Z,3.75
2024-03-08T19:13:15.400Z,4.45
2024-03-08T19:15:43.568Z,5.18
2024-03-08T19:18:13.818Z,3.10
2024-03-08T19:20:42.786Z,2.80
2024-03-08T19:23:10.649Z,3.20
2024-03-08T19:26:02.077Z,3.75
2024-03-08T19:28:30.935Z,2.25
2024-03-08T19:30:59.694Z,2.75
2024-03-08T19:35:54.308Z,3.35
2024-03-08T19:38:22.359Z,3.63
2024-03-08T19:40:53.105Z,2.13
2024-03-08T19:43:21.164Z,3.63
2024-03-08T19:45:50.852Z,2.90
2024-03-08T19:48:22.774Z,1.73
2024-03-08T19:50:51.165Z,1.33
2024-03-08T19:53:19.609Z,1.92
2024-03-08T19:55:54.881Z,1.55
2024-03-08T19:58:22.843Z,1.23
2024-03-08T20:00:50.378Z,1.85
2024-03-08T20:03:23.703Z,2.65
2024-03-08T20:05:56.440Z,1.63
2024-03-08T20:08:30.956Z,3.10
2024-03-08T20:11:10.879Z,6.18
2024-03-08T20:13:38.898Z,2.50
2024-03-08T20:16:06.116Z,2.75
2024-03-08T20:18:33.839Z,3.10
2024-03-08T20:21:05.136Z,2.58
2024-03-08T20:23:34.414Z,4.03
2024-03-08T20:26:06.719Z,3.28
2024-03-08T20:28:34.003Z,3.25
2024-03-08T20:31:02.817Z,5.57
2024-03-08T20:33:31.837Z,4.38
2024-03-08T20:35:59.574Z,3.20
2024-03-08T20:38:27.633Z,5.32
2024-03-08T20:40:55.275Z,3.13
2024-03-08T20:43:23.309Z,3.42
2024-03-08T20:45:53.831Z,3.50
2024-03-08T20:48:22.361Z,2.83
2024-03-08T20:50:50.825Z,2.42
2024-03-08T20:55:51.260Z,3.53
2024-03-08T20:58:20.014Z,2.85
2024-03-08T21:00:56.132Z,3.80
2024-03-08T21:03:26.557Z,3.95
2024-03-08T21:05:55.790Z,3.15
2024-03-08T21:08:26.903Z,5.22
2024-03-08T21:10:55.233Z,5.50
2024-03-08T21:13:25.934Z,4.97
2024-03-08T21:15:54.851Z,3.70
2024-03-08T21:18:24.007Z,4.88
2024-03-08T21:20:52.134Z,4.03
2024-03-08T21:23:22.428Z,3.85
2024-03-08T21:25:49.707Z,2.55
2024-03-08T21:28:18.958Z,2.55
2024-03-08T21:30:50.234Z,5.50
2024-03-08T21:33:18.149Z,2.80
2024-03-08T21:35:45.197Z,3.80
2024-03-08T21:38:16.564Z,2.90
2024-03-08T21:43:13.442Z,2.63
2024-03-08T21:45:40.407Z,2.17
2024-03-08T21:48:08.662Z,2.70
2024-03-08T21:50:38.138Z,4.63
2024-03-08T21:53:14.183Z,4.03
2024-03-08T21:55:49.236Z,1.95
2024-03-08T21:58:16.341Z,2.17
2024-03-08T22:00:45.505Z,2.78
2024-03-08T22:03:13.351Z,1.90
2024-03-08T22:05:42.065Z,2.45
2024-03-08T22:08:10.124Z,3.03
2024-03-08T22:10:39.890Z,1.63
2024-03-08T22:13:09.064Z,2.95
2024-03-08T22:15:39.589Z,3.95
2024-03-08T22:18:09.885Z,1.92
2024-03-08T22:20:38.842Z,3.55
2024-03-08T22:23:07.561Z,2.65
2024-03-08T22:25:35.198Z,2.40
2024-03-08T22:28:04.722Z,3.35
2024-03-08T22:30:31.871Z,5.40
2024-03-08T22:33:00.200Z,4.20
2024-03-08T22:35:31.284Z,3.20
2024-03-08T22:38:00.223Z,3.67
2024-03-08T22:40:28.737Z,5.15
2024-03-08T22:42:56.982Z,2.35
2024-03-08T22:45:25.703Z,3.00
2024-03-08T22:47:53.084Z,3.60
2024-03-08T22:50:20.744Z,2.70
2024-03-08T22:52:50.102Z,4.10
2024-03-08T22:55:22.877Z,4.03
2024-03-08T22:57:53.375Z,4.70
2024-03-08T23:00:24.292Z,2.28
2024-03-08T23:02:53.981Z,3.92
2024-03-08T23:05:28.958Z,3.42
2024-03-08T23:08:01.213Z,3.30
2024-03-08T23:10:29.301Z,3.83
2024-03-08T23:12:57.925Z,3.97
2024-03-08T23:15:30.983Z,2.08
2024-03-08T23:18:00.140Z,3.47
2024-03-08T23:23:18.312Z,5.28
2024-03-08T23:25:46.191Z,4.07
2024-03-08T23:28:14.207Z,3.40
2024-03-08T23:30:51.604Z,3.67
2024-03-08T23:33:21.428Z,4.13
2024-03-08T23:35:49.238Z,2.20
2024-03-08T23:38:16.350Z,4.10
2024-03-08T23:40:47.012Z,3.15
2024-03-08T23:43:16.789Z,5.22
2024-03-08T23:48:27.765Z,1.77
2024-03-08T23:50:54.994Z,2.95
2024-03-08T23:53:21.700Z,3.25
2024-03-08T23:55:48.583Z,2.92
2024-03-08T23:58:15.341Z,3.20
